Zenith Volou — SVA7165 — position and weather

sailwx.info

Track history (hours):
 
Tides and Currents Weather Stations Pressure Air Temp Water Temp Dewpoint Dewpoint Depression Visibility Wind Speed Wind Dir Waves Ship Positions

Zenith Volou

Last reported at 2018-Jan-12 15:00 UTC. Time now 2018-Jan-19 17:34 UTC.
Position N 37°23' E 025°01'.

; draft 4 m.

Type: Cargo ship. MMSI: 239945800.

Date/timePositionNaut miles runAvg speedWind from/ knotsBaromVisibWave heightAir tempDewpointWater temp
2018-Jan-12 15:00N 37°23' E 025°01'4 7.5
2018-Jan-12 14:30N 37°19' E 025°02'4 7.2
2018-Jan-12 14:00N 37°16' E 025°04'3 7.0
2018-Jan-12 13:30N 37°12' E 025°05'4 7.1
2018-Jan-12 13:00N 37°09' E 025°06'4 7.2
2018-Jan-12 12:30N 37°05' E 025°08'1 0.0
2018-Jan-11 17:29N 37°05' E 025°09'0 0.4
2018-Jan-11 17:00N 37°06' E 025°09'0 0.0
2018-Jan-11 16:30N 37°06' E 025°08'0 0.0
2018-Jan-11 16:00N 37°06' E 025°08'0 0.0
2018-Jan-11 15:30N 37°06' E 025°08'0 0.0
2018-Jan-11 15:00N 37°06' E 025°08'0 0.0
2018-Jan-11 14:30N 37°06' E 025°08'0 0.0
2018-Jan-11 14:00N 37°06' E 025°08'0 0.1
2018-Jan-11 13:06N 37°06' E 025°09'0 0.1
2018-Jan-11 12:56N 37°06' E 025°09'0 0.0
2018-Jan-11 12:23N 37°06' E 025°09'0 0.1
2018-Jan-11 12:00N 37°06' E 025°08'0 0.0
2018-Jan-11 11:30N 37°06' E 025°08'0 0.1
2018-Jan-11 10:47N 37°06' E 025°08'0 0.9
2018-Jan-11 10:30N 37°05' E 025°08'4 7.5
2018-Jan-11 10:00N 37°04' E 025°04'4 8.0
2018-Jan-11 09:30N 37°01' E 025°01'4 7.5
2018-Jan-11 09:00N 36°57' E 024°58'4 7.6
2018-Jan-11 08:30N 36°55' E 025°02'3 6.8
2018-Jan-11 08:00N 36°52' E 025°05'3 6.3
2018-Jan-11 07:30N 36°49' E 025°06'4 7.3
2018-Jan-11 07:00N 36°46' E 025°08'4 7.4
2018-Jan-11 06:30N 36°43' E 025°11'4 7.6
2018-Jan-11 06:00N 36°40' E 025°13'4 7.4
2018-Jan-11 05:30N 36°37' E 025°15'4 7.6
2018-Jan-11 05:00N 36°33' E 025°18'4 7.4
2018-Jan-11 04:30N 36°30' E 025°20'4 7.4
2018-Jan-11 04:00N 36°27' E 025°22'4 7.6
2018-Jan-11 03:30N 36°24' E 025°25'1 1.7
2018-Jan-11 02:59N 36°23' E 025°26'0 0.0
2018-Jan-11 02:30N 36°23' E 025°26'0 0.0
2018-Jan-11 02:00N 36°23' E 025°26'0 0.0
2018-Jan-11 01:30N 36°23' E 025°26'0 0.0
2018-Jan-11 01:00N 36°23' E 025°26'0 0.0
2018-Jan-11 00:30N 36°23' E 025°26'0 0.0
2018-Jan-11 00:00N 36°23' E 025°26'0 0.0
2018-Jan-10 23:30N 36°23' E 025°26'0 0.0
2018-Jan-10 23:00N 36°23' E 025°26'0 0.0
2018-Jan-10 22:30N 36°23' E 025°26'0 0.0
2018-Jan-10 22:00N 36°23' E 025°26'0 0.0
2018-Jan-10 21:30N 36°23' E 025°26'0 0.0
2018-Jan-10 21:00N 36°23' E 025°26'0 0.0
2018-Jan-10 20:30N 36°23' E 025°26'0 0.0
2018-Jan-10 20:00N 36°23' E 025°26'0 0.0
2018-Jan-10 19:30N 36°23' E 025°26'0 0.0
2018-Jan-10 19:00N 36°23' E 025°26'0 0.0
2018-Jan-10 18:30N 36°23' E 025°26'0 0.0
2018-Jan-10 18:00N 36°23' E 025°26'0 0.0
2018-Jan-10 17:30N 36°23' E 025°26'0 0.0
2018-Jan-10 17:00N 36°23' E 025°26'0 0.0
2018-Jan-10 16:30N 36°23' E 025°26'0 0.0
2018-Jan-10 16:00N 36°23' E 025°26'0 0.0
2018-Jan-10 15:30N 36°23' E 025°26'0 0.0
2018-Jan-10 15:00N 36°23' E 025°26'0 0.0
2018-Jan-10 14:30N 36°23' E 025°26'0 0.0
2018-Jan-10 14:00N 36°23' E 025°26'0 0.0
2018-Jan-10 13:30N 36°23' E 025°26'0 0.7
2018-Jan-10 13:00N 36°24' E 025°26'3 6.7
2018-Jan-10 12:30N 36°26' E 025°23'3 5.6
2018-Jan-10 12:00N 36°29' E 025°23'3 5.8
2018-Jan-10 11:30N 36°28' E 025°26'0 0.2
2018-Jan-10 11:00N 36°28' E 025°26'0 0.0
2018-Jan-10 10:30N 36°28' E 025°26'0 0.0
2018-Jan-10 09:52N 36°28' E 025°26'0 0.0
2018-Jan-10 09:30N 36°28' E 025°26'0 0.0
2018-Jan-10 09:00N 36°28' E 025°26'0 0.0
2018-Jan-10 08:30N 36°28' E 025°26'0 0.0
2018-Jan-10 08:00N 36°28' E 025°26'0 0.0
2018-Jan-10 07:30N 36°28' E 025°26'0 0.0
2018-Jan-10 07:00N 36°28' E 025°26'0 0.0
2018-Jan-10 06:30N 36°28' E 025°26'0 0.0
2018-Jan-10 06:00N 36°28' E 025°26'2 3.5
2018-Jan-10 05:30N 36°29' E 025°25'4 7.3
2018-Jan-10 05:00N 36°31' E 025°21'4 7.3
2018-Jan-10 04:30N 36°34' E 025°18'4 7.4
2018-Jan-10 04:00N 36°37' E 025°16'4 7.4
2018-Jan-10 03:30N 36°40' E 025°13'4 7.3
2018-Jan-10 03:00N 36°44' E 025°11'4 7.3
2018-Jan-10 02:30N 36°46' E 025°08'4 7.4
2018-Jan-10 02:00N 36°49' E 025°05'4 7.3
2018-Jan-10 01:30N 36°52' E 025°02'4 7.3
2018-Jan-10 01:00N 36°54' E 024°59'4 7.1
2018-Jan-10 00:30N 36°57' E 024°56'4 7.2
2018-Jan-10 00:00N 37°00' E 024°54'4 7.1
2018-Jan-09 23:30N 37°03' E 024°52'4 7.2
2018-Jan-09 23:00N 37°07' E 024°50'4 7.2
2018-Jan-09 22:30N 37°10' E 024°48'4 7.2
2018-Jan-09 22:00N 37°13' E 024°45'4 7.6
2018-Jan-09 21:30N 37°16' E 024°43'4 7.6
2018-Jan-09 21:00N 37°19' E 024°41'4 7.7
2018-Jan-09 20:30N 37°23' E 024°38'4 7.9
2018-Jan-09 20:00N 37°26' E 024°36'4 7.6
2018-Jan-09 19:30N 37°30' E 024°34'4 7.6
2018-Jan-09 19:00N 37°33' E 024°31'4 7.5
2018-Jan-09 18:30N 37°36' E 024°29'4 7.4
2018-Jan-09 18:00N 37°40' E 024°27'4 7.3
2018-Jan-09 17:30N 37°43' E 024°25'4 7.1
2018-Jan-09 17:00N 37°46' E 024°23'4 7.3
2018-Jan-09 16:30N 37°49' E 024°20'4 7.6
2018-Jan-09 16:00N 37°52' E 024°18'4 7.6
2018-Jan-09 15:30N 37°56' E 024°15'4 7.5
2018-Jan-09 14:56N 37°59' E 024°13'4 7.4
2018-Jan-09 14:26N 38°03' E 024°10'6 7.4
2018-Jan-09 13:37N 38°08' E 024°07'1 7.3
2018-Jan-09 13:26N 38°09' E 024°06'4 7.2
2018-Jan-09 12:50N 38°13' E 024°03'  
2018-Jan-05 12:00N 38°05' E 024°09'28 1.1
2018-Jan-04 09:14N 37°53' E 024°42'  
Track history (hours):
 
Tides and Currents Weather Stations Pressure Air Temp Water Temp Dewpoint Dewpoint Depression Visibility Wind Speed Wind Dir Waves Ship Positions

Zenith Volou

Last reported at 2018-Jan-12 15:00 UTC. Time now 2018-Jan-19 17:34 UTC.
Position N 37°23' E 025°01'.

; draft 4 m.

Type: Cargo ship. MMSI: 239945800.

Date/timePositionNaut miles runAvg speedWind from/ knotsBaromVisibWave heightAir tempDewpointWater temp
2018-Jan-12 15:00N 37°23' E 025°01'4 7.5
2018-Jan-12 14:30N 37°19' E 025°02'4 7.2
2018-Jan-12 14:00N 37°16' E 025°04'3 7.0
2018-Jan-12 13:30N 37°12' E 025°05'4 7.1
2018-Jan-12 13:00N 37°09' E 025°06'4 7.2
2018-Jan-12 12:30N 37°05' E 025°08'1 0.0
2018-Jan-11 17:29N 37°05' E 025°09'0 0.4
2018-Jan-11 17:00N 37°06' E 025°09'0 0.0
2018-Jan-11 16:30N 37°06' E 025°08'0 0.0
2018-Jan-11 16:00N 37°06' E 025°08'0 0.0
2018-Jan-11 15:30N 37°06' E 025°08'0 0.0
2018-Jan-11 15:00N 37°06' E 025°08'0 0.0
2018-Jan-11 14:30N 37°06' E 025°08'0 0.0
2018-Jan-11 14:00N 37°06' E 025°08'0 0.1
2018-Jan-11 13:06N 37°06' E 025°09'0 0.1
2018-Jan-11 12:56N 37°06' E 025°09'0 0.0
2018-Jan-11 12:23N 37°06' E 025°09'0 0.1
2018-Jan-11 12:00N 37°06' E 025°08'0 0.0
2018-Jan-11 11:30N 37°06' E 025°08'0 0.1
2018-Jan-11 10:47N 37°06' E 025°08'0 0.9
2018-Jan-11 10:30N 37°05' E 025°08'4 7.5
2018-Jan-11 10:00N 37°04' E 025°04'4 8.0
2018-Jan-11 09:30N 37°01' E 025°01'4 7.5
2018-Jan-11 09:00N 36°57' E 024°58'4 7.6
2018-Jan-11 08:30N 36°55' E 025°02'3 6.8
2018-Jan-11 08:00N 36°52' E 025°05'3 6.3
2018-Jan-11 07:30N 36°49' E 025°06'4 7.3
2018-Jan-11 07:00N 36°46' E 025°08'4 7.4
2018-Jan-11 06:30N 36°43' E 025°11'4 7.6
2018-Jan-11 06:00N 36°40' E 025°13'4 7.4
2018-Jan-11 05:30N 36°37' E 025°15'4 7.6
2018-Jan-11 05:00N 36°33' E 025°18'4 7.4
2018-Jan-11 04:30N 36°30' E 025°20'4 7.4
2018-Jan-11 04:00N 36°27' E 025°22'4 7.6
2018-Jan-11 03:30N 36°24' E 025°25'1 1.7
2018-Jan-11 02:59N 36°23' E 025°26'0 0.0
2018-Jan-11 02:30N 36°23' E 025°26'0 0.0
2018-Jan-11 02:00N 36°23' E 025°26'0 0.0
2018-Jan-11 01:30N 36°23' E 025°26'0 0.0
2018-Jan-11 01:00N 36°23' E 025°26'0 0.0
2018-Jan-11 00:30N 36°23' E 025°26'0 0.0
2018-Jan-11 00:00N 36°23' E 025°26'0 0.0
2018-Jan-10 23:30N 36°23' E 025°26'0 0.0
2018-Jan-10 23:00N 36°23' E 025°26'0 0.0
2018-Jan-10 22:30N 36°23' E 025°26'0 0.0
2018-Jan-10 22:00N 36°23' E 025°26'0 0.0
2018-Jan-10 21:30N 36°23' E 025°26'0 0.0
2018-Jan-10 21:00N 36°23' E 025°26'0 0.0
2018-Jan-10 20:30N 36°23' E 025°26'0 0.0
2018-Jan-10 20:00N 36°23' E 025°26'0 0.0
2018-Jan-10 19:30N 36°23' E 025°26'0 0.0
2018-Jan-10 19:00N 36°23' E 025°26'0 0.0
2018-Jan-10 18:30N 36°23' E 025°26'0 0.0
2018-Jan-10 18:00N 36°23' E 025°26'0 0.0
2018-Jan-10 17:30N 36°23' E 025°26'0 0.0
2018-Jan-10 17:00N 36°23' E 025°26'0 0.0
2018-Jan-10 16:30N 36°23' E 025°26'0 0.0
2018-Jan-10 16:00N 36°23' E 025°26'0 0.0
2018-Jan-10 15:30N 36°23' E 025°26'0 0.0
2018-Jan-10 15:00N 36°23' E 025°26'0 0.0
2018-Jan-10 14:30N 36°23' E 025°26'0 0.0
2018-Jan-10 14:00N 36°23' E 025°26'0 0.0
2018-Jan-10 13:30N 36°23' E 025°26'0 0.7
2018-Jan-10 13:00N 36°24' E 025°26'3 6.7
2018-Jan-10 12:30N 36°26' E 025°23'3 5.6
2018-Jan-10 12:00N 36°29' E 025°23'3 5.8
2018-Jan-10 11:30N 36°28' E 025°26'0 0.2
2018-Jan-10 11:00N 36°28' E 025°26'0 0.0
2018-Jan-10 10:30N 36°28' E 025°26'0 0.0
2018-Jan-10 09:52N 36°28' E 025°26'0 0.0
2018-Jan-10 09:30N 36°28' E 025°26'0 0.0
2018-Jan-10 09:00N 36°28' E 025°26'0 0.0
2018-Jan-10 08:30N 36°28' E 025°26'0 0.0
2018-Jan-10 08:00N 36°28' E 025°26'0 0.0
2018-Jan-10 07:30N 36°28' E 025°26'0 0.0
2018-Jan-10 07:00N 36°28' E 025°26'0 0.0
2018-Jan-10 06:30N 36°28' E 025°26'0 0.0
2018-Jan-10 06:00N 36°28' E 025°26'2 3.5
2018-Jan-10 05:30N 36°29' E 025°25'4 7.3
2018-Jan-10 05:00N 36°31' E 025°21'4 7.3
2018-Jan-10 04:30N 36°34' E 025°18'4 7.4
2018-Jan-10 04:00N 36°37' E 025°16'4 7.4
2018-Jan-10 03:30N 36°40' E 025°13'4 7.3
2018-Jan-10 03:00N 36°44' E 025°11'4 7.3
2018-Jan-10 02:30N 36°46' E 025°08'4 7.4
2018-Jan-10 02:00N 36°49' E 025°05'4 7.3
2018-Jan-10 01:30N 36°52' E 025°02'4 7.3
2018-Jan-10 01:00N 36°54' E 024°59'4 7.1
2018-Jan-10 00:30N 36°57' E 024°56'4 7.2
2018-Jan-10 00:00N 37°00' E 024°54'4 7.1
2018-Jan-09 23:30N 37°03' E 024°52'4 7.2
2018-Jan-09 23:00N 37°07' E 024°50'4 7.2
2018-Jan-09 22:30N 37°10' E 024°48'4 7.2
2018-Jan-09 22:00N 37°13' E 024°45'4 7.6
2018-Jan-09 21:30N 37°16' E 024°43'4 7.6
2018-Jan-09 21:00N 37°19' E 024°41'4 7.7
2018-Jan-09 20:30N 37°23' E 024°38'4 7.9
2018-Jan-09 20:00N 37°26' E 024°36'4 7.6
2018-Jan-09 19:30N 37°30' E 024°34'4 7.6
2018-Jan-09 19:00N 37°33' E 024°31'4 7.5
2018-Jan-09 18:30N 37°36' E 024°29'4 7.4
2018-Jan-09 18:00N 37°40' E 024°27'4 7.3
2018-Jan-09 17:30N 37°43' E 024°25'4 7.1
2018-Jan-09 17:00N 37°46' E 024°23'4 7.3
2018-Jan-09 16:30N 37°49' E 024°20'4 7.6
2018-Jan-09 16:00N 37°52' E 024°18'4 7.6
2018-Jan-09 15:30N 37°56' E 024°15'4 7.5
2018-Jan-09 14:56N 37°59' E 024°13'4 7.4
2018-Jan-09 14:26N 38°03' E 024°10'6 7.4
2018-Jan-09 13:37N 38°08' E 024°07'1 7.3
2018-Jan-09 13:26N 38°09' E 024°06'4 7.2
2018-Jan-09 12:50N 38°13' E 024°03'  
2018-Jan-05 12:00N 38°05' E 024°09'28 1.1
2018-Jan-04 09:14N 37°53' E 024°42'  

Dump ship's entire track history